Time;durP1;ratioP1;P1;durP2;ratioP2;P2;SDS_P1;SDS_P2;PMS_P1;PMS_P2;Temp;Humidity;BMP_temperature;BMP_pressure;BME280_temperature;BME280_humidity;BME280_pressure;Samples;Min_cycle;Max_cycle;Signal;HPM_P1;HPM_P2
2022/04/17 00:00:53;;;;;;;0.40;0.40;;;;;;;12.02;54.80;101417.59;5084319;28;20048;-61
2022/04/17 00:03:22;;;;;;;0.65;0.47;;;;;;;11.92;55.41;101418.38;5091893;28;20055;-61
2022/04/17 00:05:51;;;;;;;2.38;0.63;;;;;;;11.89;55.04;101413.44;5091674;28;20058;-60
2022/04/17 00:08:19;;;;;;;0.65;0.47;;;;;;;11.83;55.38;101402.44;5085738;28;20071;-61
2022/04/17 00:10:47;;;;;;;0.40;0.40;;;;;;;11.79;55.58;101412.28;5085517;28;20406;-61
2022/04/17 00:13:16;;;;;;;0.98;0.73;;;;;;;11.77;55.64;101411.75;5092000;28;20513;-60
2022/04/17 00:15:44;;;;;;;1.17;0.85;;;;;;;11.74;55.75;101412.28;5092030;28;20044;-61
2022/04/17 00:18:12;;;;;;;3.03;0.65;;;;;;;11.72;55.58;101414.44;5092173;28;20386;-61
2022/04/17 00:20:40;;;;;;;0.50;0.50;;;;;;;11.72;55.53;101410.91;5092060;28;20516;-61
2022/04/17 00:23:08;;;;;;;0.65;0.60;;;;;;;11.74;55.68;101415.03;5089995;28;20382;-61
2022/04/17 00:25:36;;;;;;;1.10;0.60;;;;;;;11.71;55.87;101421.03;5092311;28;20505;-61
2022/04/17 00:28:04;;;;;;;1.40;0.63;;;;;;;11.61;56.39;101413.59;5091523;28;20048;-61
2022/04/17 00:30:32;;;;;;;0.88;0.70;;;;;;;11.55;56.34;101426.44;5091938;28;20379;-61
2022/04/17 00:33:03;;;;;;;2.85;1.10;;;;;;;11.55;56.21;101420.94;5091827;28;20051;-61
2022/04/17 00:35:30;;;;;;;3.72;0.50;;;;;;;11.58;56.53;101424.25;5091821;28;20048;-61
2022/04/17 00:37:58;;;;;;;1.00;0.80;;;;;;;11.50;57.40;101423.69;5091541;28;20055;-61
2022/04/17 00:40:26;;;;;;;1.58;0.75;;;;;;;11.42;57.17;101410.47;5091629;28;20044;-61
2022/04/17 00:42:55;;;;;;;0.73;0.70;;;;;;;11.34;57.20;101417.25;5091835;28;20048;-60
2022/04/17 00:45:24;;;;;;;1.38;0.80;;;;;;;11.32;56.94;101416.72;5091641;28;20040;-60
2022/04/17 00:47:52;;;;;;;1.25;0.85;;;;;;;11.28;57.03;101421.91;5088091;28;20052;-60
2022/04/17 00:50:20;;;;;;;0.90;0.50;;;;;;;11.20;57.38;101425.13;5089038;28;20048;-60
2022/04/17 00:52:48;;;;;;;2.22;0.65;;;;;;;11.18;57.36;101410.88;5091946;28;20048;-60
2022/04/17 00:55:16;;;;;;;0.93;0.93;;;;;;;11.13;57.86;101417.13;5092240;28;20056;-61
2022/04/17 00:57:44;;;;;;;1.67;1.25;;;;;;;11.10;58.21;101414.91;5092083;28;20051;-61
2022/04/17 01:00:13;;;;;;;0.82;0.70;;;;;;;11.05;57.99;101411.31;5091224;28;20044;-60
2022/04/17 01:02:44;;;;;;;0.70;0.70;;;;;;;11.02;58.55;101408.03;5091450;28;20394;-61
2022/04/17 01:05:12;;;;;;;0.70;0.70;;;;;;;11.01;58.66;101411.84;5091842;28;20052;-61
2022/04/17 01:07:40;;;;;;;0.55;0.50;;;;;;;10.88;58.77;101412.28;5089977;28;20048;-61
2022/04/17 01:10:08;;;;;;;1.42;0.90;;;;;;;10.91;58.94;101405.47;5090678;28;20044;-60
2022/04/17 01:12:37;;;;;;;0.93;0.80;;;;;;;10.92;58.63;101399.72;5088737;28;20056;-61
2022/04/17 01:15:05;;;;;;;2.33;1.17;;;;;;;10.87;58.67;101411.44;5091568;28;20719;-60
2022/04/17 01:17:33;;;;;;;0.65;0.65;;;;;;;10.87;58.88;101407.91;5091026;28;20063;-61
2022/04/17 01:20:02;;;;;;;0.88;0.60;;;;;;;10.80;58.58;101408.09;5091365;28;20048;-61
2022/04/17 01:22:30;;;;;;;0.57;0.57;;;;;;;10.72;58.69;101414.88;5091135;28;20062;-60
2022/04/17 01:27:45;;;;;;;1.17;0.98;;;;;;;10.72;58.69;101416.81;5091504;28;20398;-61
2022/04/17 01:30:12;;;;;;;1.15;0.75;;;;;;;10.69;58.66;101409.09;5091070;28;20056;-60
2022/04/17 01:32:40;;;;;;;1.80;1.15;;;;;;;10.70;58.59;101411.59;5091443;28;20040;-61
2022/04/17 01:35:08;;;;;;;1.35;1.25;;;;;;;10.64;58.71;101414.56;5072914;28;20040;-61
2022/04/17 01:37:36;;;;;;;2.25;1.38;;;;;;;10.62;58.65;101415.63;5070750;28;20049;-61
2022/04/17 01:40:05;;;;;;;1.23;1.00;;;;;;;10.55;58.90;101416.94;5071060;28;20056;-61
2022/04/17 01:42:35;;;;;;;3.60;1.08;;;;;;;10.51;59.01;101411.13;5063994;28;20053;-60
2022/04/17 01:45:04;;;;;;;0.80;0.80;;;;;;;10.53;59.04;101416.34;5074294;28;20050;-60
2022/04/17 01:47:31;;;;;;;5.30;1.30;;;;;;;10.46;59.19;101409.19;5074522;28;20044;-60
2022/04/17 01:50:00;;;;;;;2.75;1.10;;;;;;;10.42;59.65;101413.47;5074366;28;20048;-60
2022/04/17 01:52:27;;;;;;;1.02;0.77;;;;;;;10.36;59.68;101417.25;5074185;28;20526;-60
2022/04/17 01:54:55;;;;;;;1.48;1.20;;;;;;;10.31;60.32;101415.28;5074213;28;20533;-60
2022/04/17 01:57:23;;;;;;;2.15;1.10;;;;;;;10.22;60.26;101414.13;5074210;28;20049;-60
2022/04/17 01:59:51;;;;;;;1.08;1.02;;;;;;;10.15;60.33;101410.72;5074238;28;20040;-61
2022/04/17 02:02:19;;;;;;;0.65;0.65;;;;;;;10.07;60.51;101409.31;5074149;28;20056;-61
2022/04/17 02:04:47;;;;;;;1.38;1.20;;;;;;;10.06;60.49;101419.41;5080331;28;20040;-60
2022/04/17 02:07:15;;;;;;;2.65;1.30;;;;;;;10.06;60.81;101407.63;5092949;28;20505;-61
2022/04/17 02:09:43;;;;;;;1.65;1.23;;;;;;;10.05;60.88;101412.28;5093955;28;20052;-60
2022/04/17 02:12:11;;;;;;;2.17;1.45;;;;;;;9.97;61.03;101406.44;5094603;28;20051;-60
2022/04/17 02:14:40;;;;;;;2.20;0.98;;;;;;;9.89;61.77;101403.09;5094160;28;20052;-61
2022/04/17 02:17:08;;;;;;;1.33;0.98;;;;;;;9.82;62.17;101414.19;5094173;28;20044;-61
2022/04/17 02:19:36;;;;;;;2.65;1.10;;;;;;;9.75;62.21;101418.19;5094453;28;20574;-61
2022/04/17 02:22:04;;;;;;;2.88;1.55;;;;;;;9.75;62.51;101418.19;5094423;28;20379;-60
2022/04/17 02:24:32;;;;;;;2.40;1.67;;;;;;;9.69;62.78;101411.84;5088048;28;20410;-60
2022/04/17 02:27:00;;;;;;;1.70;1.35;;;;;;;9.63;63.08;101416.41;5091965;28;20055;-60
2022/04/17 02:29:27;;;;;;;5.18;1.45;;;;;;;9.63;63.43;101427.34;5092458;28;20052;-61
2022/04/17 02:31:55;;;;;;;1.88;1.08;;;;;;;9.60;63.33;101421.56;5094110;28;20118;-61
2022/04/17 02:34:23;;;;;;;2.20;1.35;;;;;;;9.56;64.08;101429.44;5093922;28;20067;-61
2022/04/17 02:36:53;;;;;;;1.58;1.48;;;;;;;9.54;64.29;101424.22;5093923;28;20063;-61
2022/04/17 02:39:21;;;;;;;4.32;1.27;;;;;;;9.45;64.51;101430.38;5093903;28;20044;-61
2022/04/17 02:41:48;;;;;;;1.50;1.33;;;;;;;9.41;64.89;101430.88;5093511;28;20063;-61
2022/04/17 02:44:16;;;;;;;0.95;0.95;;;;;;;9.37;64.83;101423.41;5093304;28;20060;-61
2022/04/17 02:49:31;;;;;;;3.70;1.40;;;;;;;9.32;65.45;101421.44;5093730;28;20048;-61
2022/04/17 02:51:59;;;;;;;1.98;1.60;;;;;;;9.27;65.72;101424.09;5085263;28;20057;-61
2022/04/17 02:54:27;;;;;;;2.28;1.52;;;;;;;9.16;65.99;101425.84;5093182;28;20048;-61
2022/04/17 02:56:55;;;;;;;2.70;1.38;;;;;;;9.12;65.92;101427.44;5093323;28;20403;-60
2022/04/17 02:59:23;;;;;;;1.15;1.05;;;;;;;9.18;65.45;101429.16;5093696;28;20044;-61
2022/04/17 03:07:26;;;;;;;1.23;1.13;;;;;;;9.18;64.61;101423.69;5093473;28;20067;-61
2022/04/17 03:09:53;;;;;;;3.67;1.25;;;;;;;9.11;65.08;101426.63;5065320;28;20394;-61
2022/04/17 03:12:21;;;;;;;2.38;1.30;;;;;;;9.16;65.04;101427.75;5088368;28;20056;-61
2022/04/17 03:14:49;;;;;;;2.78;1.30;;;;;;;9.18;64.58;101431.88;5091995;28;20040;-61
2022/04/17 03:17:17;;;;;;;1.38;1.27;;;;;;;9.11;64.48;101432.06;5088679;28;20044;-61
2022/04/17 03:19:46;;;;;;;1.95;1.38;;;;;;;9.08;63.98;101429.81;5093102;28;20043;-61
2022/04/17 03:22:15;;;;;;;1.23;1.00;;;;;;;9.10;62.71;101424.94;5093124;28;20055;-61
2022/04/17 03:24:42;;;;;;;2.78;1.23;;;;;;;9.09;62.13;101423.28;5092374;28;20040;-61
2022/04/17 03:27:10;;;;;;;2.00;1.30;;;;;;;9.05;62.24;101422.13;5091368;28;20399;-61
2022/04/17 03:29:38;;;;;;;1.20;0.93;;;;;;;9.01;60.97;101420.97;5092771;28;20471;-61
2022/04/17 03:32:06;;;;;;;1.98;1.45;;;;;;;8.95;60.55;101416.53;5091563;28;20055;-61
2022/04/17 03:34:34;;;;;;;3.50;1.50;;;;;;;9.00;58.88;101424.78;5092377;28;20119;-61
2022/04/17 03:37:03;;;;;;;1.33;1.10;;;;;;;8.94;59.68;101420.34;5092701;28;20048;-60
2022/04/17 03:39:32;;;;;;;4.65;1.50;;;;;;;8.87;59.53;101421.31;5092773;28;20379;-61
2022/04/17 03:42:00;;;;;;;2.10;1.52;;;;;;;8.90;59.68;101424.63;5079595;28;20044;-60
2022/04/17 03:44:29;;;;;;;3.92;1.35;;;;;;;8.89;58.22;101431.16;5083314;28;20052;-61
2022/04/17 03:46:57;;;;;;;6.32;1.52;;;;;;;8.80;57.95;101428.81;5092024;28;20048;-60
2022/04/17 03:49:24;;;;;;;1.27;1.17;;;;;;;8.80;57.90;101428.81;5092502;28;20044;-60
2022/04/17 03:51:53;;;;;;;1.52;1.30;;;;;;;8.72;58.35;101421.06;5092338;28;20484;-60
2022/04/17 03:54:21;;;;;;;5.07;1.42;;;;;;;8.73;57.41;101419.97;5091058;28;20044;-61
2022/04/17 03:56:49;;;;;;;5.05;1.48;;;;;;;8.68;56.95;101419.88;5091782;28;20059;-61
2022/04/17 03:59:17;;;;;;;1.90;1.48;;;;;;;8.78;56.57;101422.78;5092708;28;20074;-61
2022/04/17 04:01:48;;;;;;;2.50;1.58;;;;;;;8.75;56.14;101423.28;5090062;28;20469;-61
2022/04/17 04:04:17;;;;;;;1.48;1.27;;;;;;;8.71;57.03;101419.41;5092068;28;20399;-61
2022/04/17 04:06:45;;;;;;;3.00;1.85;;;;;;;8.65;56.49;101420.38;5092266;28;20126;-61
2022/04/17 04:09:13;;;;;;;1.90;1.40;;;;;;;8.67;56.37;101426.41;5091666;28;20048;-62
2022/04/17 04:11:41;;;;;;;3.33;1.65;;;;;;;8.71;55.57;101427.59;5092068;28;20043;-61
2022/04/17 04:14:10;;;;;;;1.80;1.67;;;;;;;8.66;55.69;101422.03;5092195;28;20394;-61
2022/04/17 04:16:39;;;;;;;3.45;1.25;;;;;;;8.69;55.93;101424.25;5091883;28;20055;-63
2022/04/17 04:19:09;;;;;;;2.08;1.13;;;;;;;8.68;56.12;101430.78;5092057;28;20079;-61
2022/04/17 04:21:47;;;;;;;1.50;1.40;;;;;;;8.64;55.89;101426.94;5091617;28;20047;-61
2022/04/17 04:24:18;;;;;;;2.47;1.73;;;;;;;8.65;56.06;101437.56;5092104;28;20051;-61
2022/04/17 04:28:33;;;;;;;8.13;1.50;;;;;;;8.60;55.76;101432.03;5088653;28;20037;-61
2022/04/17 04:29:37;;;;;;;3.03;1.30;;;;;;;8.52;55.63;101435.16;5087603;28;20059;-60
2022/04/17 04:32:06;;;;;;;5.50;1.25;;;;;;;8.54;55.23;101444.75;5091888;28;20036;-60
2022/04/17 04:34:34;;;;;;;3.67;1.50;;;;;;;8.58;55.01;101443.19;5091433;28;20078;-61
2022/04/17 04:37:02;;;;;;;3.38;1.42;;;;;;;8.54;55.45;101444.75;5078274;28;20049;-60
2022/04/17 04:39:30;;;;;;;5.18;1.52;;;;;;;8.54;54.95;101439.31;5066326;28;20052;-60
2022/04/17 04:41:58;;;;;;;4.00;1.42;;;;;;;8.55;54.26;101446.41;5082051;28;20367;-60
2022/04/17 04:44:26;;;;;;;4.30;1.90;;;;;;;8.48;55.23;101442.97;5091821;28;20044;-60
2022/04/17 04:46:55;;;;;;;5.22;1.55;;;;;;;8.43;55.51;101442.88;5090489;28;20040;-61
2022/04/17 04:49:29;;;;;;;2.20;1.60;;;;;;;8.46;54.67;101435.03;5082524;28;20044;-60
2022/04/17 04:52:02;;;;;;;2.83;1.60;;;;;;;8.51;55.33;101434.28;5088518;28;20036;-61
2022/04/17 04:54:31;;;;;;;5.40;1.40;;;;;;;8.57;54.79;101443.44;5082144;28;20056;-61
2022/04/17 04:57:00;;;;;;;2.97;1.42;;;;;;;8.50;54.97;101443.56;5081790;28;20044;-61
2022/04/17 04:59:29;;;;;;;2.20;1.65;;;;;;;8.51;54.30;101439.75;5091744;28;20051;-61
2022/04/17 05:01:57;;;;;;;4.13;1.83;;;;;;;8.62;53.83;101449.00;5079088;28;20051;-60
2022/04/17 05:04:25;;;;;;;2.25;1.10;;;;;;;8.70;53.56;101450.50;5079704;28;20036;-52
2022/04/17 05:06:53;;;;;;;3.30;1.17;;;;;;;8.72;52.71;101443.72;5091601;28;20040;-61
2022/04/17 05:09:21;;;;;;;3.05;1.42;;;;;;;8.85;52.66;101452.66;5090404;28;20048;-60
2022/04/17 05:11:49;;;;;;;1.45;1.10;;;;;;;8.95;52.46;101447.34;5091857;28;20044;-60
2022/04/17 05:14:20;;;;;;;3.65;1.52;;;;;;;8.96;51.99;101456.38;5081845;28;20048;-60
2022/04/17 05:16:48;;;;;;;1.75;1.30;;;;;;;9.06;51.36;101455.72;5080273;28;20495;-60
2022/04/17 05:19:24;;;;;;;2.00;1.50;;;;;;;9.21;50.70;101455.16;5068869;28;20052;-61
2022/04/17 05:21:57;;;;;;;1.30;1.20;;;;;;;9.22;50.91;101457.63;5061995;28;20044;-60
2022/04/17 05:24:25;;;;;;;1.83;1.40;;;;;;;9.26;50.18;101450.59;5065894;28;20539;-60
2022/04/17 05:26:54;;;;;;;1.95;1.85;;;;;;;9.30;49.96;101461.84;5061207;28;20045;-60
2022/04/17 05:29:22;;;;;;;3.22;1.55;;;;;;;9.65;50.71;101458.00;5070992;28;20047;-60
2022/04/17 05:31:50;;;;;;;3.10;1.48;;;;;;;10.05;49.64;101458.78;5093895;28;20048;-68
2022/04/17 05:34:19;;;;;;;2.22;1.50;;;;;;;10.34;47.26;101460.47;5068642;28;20063;-68
2022/04/17 05:36:47;;;;;;;4.65;1.60;;;;;;;10.72;47.06;101458.69;5063951;28;20492;-68
2022/04/17 05:39:15;;;;;;;3.42;1.58;;;;;;;10.94;46.45;101460.53;5053915;28;20048;-68
2022/04/17 05:41:44;;;;;;;3.55;1.33;;;;;;;11.10;45.56;101458.75;5040474;28;20055;-68
2022/04/17 05:44:13;;;;;;;2.75;1.33;;;;;;;11.27;44.77;101466.00;5064355;28;20060;-68
2022/04/17 05:46:41;;;;;;;2.80;1.60;;;;;;;11.37;43.90;101471.56;5056330;28;20052;-68
2022/04/17 05:49:09;;;;;;;3.47;1.60;;;;;;;11.51;43.98;101465.59;5061848;28;20407;-68
2022/04/17 05:51:37;;;;;;;3.67;1.50;;;;;;;11.67;43.66;101467.34;5059464;28;20395;-68
2022/04/17 05:54:07;;;;;;;1.45;1.35;;;;;;;11.69;43.49;101465.16;5056436;28;20052;-68
2022/04/17 05:56:37;;;;;;;3.95;1.40;;;;;;;11.86;43.72;101471.53;5037901;28;20056;-68
2022/04/17 05:59:07;;;;;;;1.63;1.23;;;;;;;11.88;42.09;101466.63;5058498;28;20076;-68
2022/04/17 06:01:35;;;;;;;2.10;1.45;;;;;;;11.80;41.56;101471.53;5036716;28;20049;-68
2022/04/17 06:04:03;;;;;;;2.75;1.42;;;;;;;11.89;42.74;101479.25;5046206;28;20049;-68
2022/04/17 06:06:32;;;;;;;1.92;1.48;;;;;;;12.06;41.91;101481.81;5062131;28;20519;-69
2022/04/17 06:09:02;;;;;;;5.10;1.40;;;;;;;12.21;41.96;101481.06;5073248;28;20051;-68
2022/04/17 06:11:30;;;;;;;4.45;1.98;;;;;;;11.65;40.84;101482.41;5039592;28;20044;-68
2022/04/17 06:13:59;;;;;;;2.33;1.40;;;;;;;11.67;41.54;101486.56;5061131;28;20067;-68
2022/04/17 06:16:27;;;;;;;1.45;1.30;;;;;;;11.62;41.49;101480.19;5051982;28;20041;-68
2022/04/17 06:18:55;;;;;;;2.47;2.08;;;;;;;11.80;41.48;101482.53;5052451;28;20083;-68
2022/04/17 06:21:24;;;;;;;1.67;1.52;;;;;;;11.84;40.82;101488.28;5043667;28;20044;-68
2022/04/17 06:23:52;;;;;;;1.90;1.80;;;;;;;12.05;40.98;101488.41;5061437;28;20044;-68
2022/04/17 06:26:20;;;;;;;1.77;1.40;;;;;;;11.98;41.31;101482.31;5063023;28;20063;-68
2022/04/17 06:28:48;;;;;;;2.22;1.45;;;;;;;11.86;39.75;101491.59;5059474;28;20494;-68
2022/04/17 06:31:16;;;;;;;1.67;1.58;;;;;;;11.97;41.05;101486.97;5063194;28;20078;-68
2022/04/17 06:33:44;;;;;;;1.73;1.48;;;;;;;12.10;40.40;101485.69;5074339;28;20059;-68
2022/04/17 06:36:12;;;;;;;1.15;1.05;;;;;;;12.17;39.38;101483.53;5080384;28;20052;-68
2022/04/17 06:38:40;;;;;;;2.05;1.40;;;;;;;12.11;39.69;101487.34;5078778;28;20048;-68
2022/04/17 06:41:08;;;;;;;6.45;1.75;;;;;;;12.19;40.10;101475.88;5073113;28;20052;-68
2022/04/17 06:43:36;;;;;;;3.00;1.20;;;;;;;12.31;39.36;101494.81;5072320;28;20048;-69
2022/04/17 06:46:05;;;;;;;4.50;1.48;;;;;;;12.33;38.92;101480.84;5072036;28;20044;-69
2022/04/17 06:48:33;;;;;;;2.55;1.23;;;;;;;12.34;38.87;101480.56;5066222;28;20506;-68
2022/04/17 06:51:01;;;;;;;2.08;1.42;;;;;;;12.35;38.24;101482.22;5059028;28;20043;-69
2022/04/17 06:53:29;;;;;;;2.00;1.90;;;;;;;12.20;37.17;101485.75;5067930;28;20037;-69
2022/04/17 06:55:57;;;;;;;1.35;1.23;;;;;;;12.33;37.99;101473.41;5070100;28;20056;-69
2022/04/17 06:58:25;;;;;;;1.90;1.10;;;;;;;12.47;37.89;101487.47;5072157;28;20036;-69
2022/04/17 07:00:53;;;;;;;1.50;1.35;;;;;;;12.33;37.21;101476.16;5072144;28;20398;-70
2022/04/17 07:03:21;;;;;;;2.08;1.30;;;;;;;12.45;36.63;101466.84;5072378;28;20076;-70
2022/04/17 07:05:49;;;;;;;2.33;1.55;;;;;;;12.35;37.18;101462.16;5079795;28;20402;-70
2022/04/17 07:08:17;;;;;;;3.60;1.15;;;;;;;12.41;36.75;101463.03;5089957;28;20044;-71
2022/04/17 07:10:48;;;;;;;1.65;1.55;;;;;;;12.55;36.90;101463.31;5085048;28;20055;-70
2022/04/17 07:13:18;;;;;;;1.73;1.42;;;;;;;12.64;36.96;101472.66;5080951;28;20051;-70
2022/04/17 07:15:47;;;;;;;2.75;1.30;;;;;;;12.62;36.25;101459.22;5092798;28;20044;-70
2022/04/17 07:18:15;;;;;;;2.08;1.80;;;;;;;12.61;35.83;101463.06;5092811;28;20055;-69
2022/04/17 07:20:43;;;;;;;2.10;1.55;;;;;;;12.46;35.46;101455.63;5092859;28;20047;-70
2022/04/17 07:23:11;;;;;;;2.17;1.67;;;;;;;12.72;35.05;101450.16;5092705;28;20040;-70
2022/04/17 07:25:39;;;;;;;5.97;1.67;;;;;;;12.91;35.42;101452.38;5076688;28;20041;-70
2022/04/17 07:28:14;;;;;;;2.88;2.08;;;;;;;13.16;36.17;101451.53;5078265;28;20060;-69
2022/04/17 07:30:43;;;;;;;3.95;1.52;;;;;;;13.10;34.66;101457.31;5074572;28;21495;-70
2022/04/17 07:33:12;;;;;;;1.80;1.30;;;;;;;13.04;34.55;101449.09;5073464;28;20052;-70
2022/04/17 07:35:39;;;;;;;2.03;1.60;;;;;;;12.97;34.55;101454.03;5083854;28;20040;-69
2022/04/17 07:38:08;;;;;;;5.53;1.27;;;;;;;13.02;35.18;101456.75;5077915;28;20047;-70
2022/04/17 07:40:36;;;;;;;2.70;1.77;;;;;;;13.14;34.96;101459.25;5076746;28;20052;-52
2022/04/17 07:43:05;;;;;;;3.47;1.42;;;;;;;13.11;33.66;101457.03;5067325;28;20053;-71
2022/04/17 07:45:34;;;;;;;3.97;2.28;;;;;;;13.05;33.56;101463.63;5057593;28;20491;-69
2022/04/17 07:48:01;;;;;;;1.45;1.20;;;;;;;13.16;33.86;101468.03;5055135;28;20045;-61
2022/04/17 07:50:31;;;;;;;1.73;1.48;;;;;;;12.97;34.12;101466.94;5055636;28;20522;-58
2022/04/17 07:53:00;;;;;;;3.42;1.48;;;;;;;12.97;34.37;101458.69;5051863;28;20507;-68
2022/04/17 07:55:29;;;;;;;3.05;2.15;;;;;;;13.02;33.67;101450.47;5056677;28;20041;-69
2022/04/17 08:00:43;;;;;;;1.75;1.45;;;;;;;13.43;33.36;101446.81;5056250;28;20643;-69
2022/04/17 08:06:05;;;;;;;1.75;1.50;;;;;;;13.49;33.60;101458.69;5069005;28;20037;-69
2022/04/17 08:08:34;;;;;;;1.17;1.17;;;;;;;13.47;32.91;101444.38;5064499;28;20044;-69
2022/04/17 08:11:04;;;;;;;3.53;1.52;;;;;;;13.36;33.60;101444.38;5068755;28;20059;-69
2022/04/17 08:13:34;;;;;;;3.45;1.70;;;;;;;13.61;34.24;101453.72;5069205;28;20056;-69
2022/04/17 08:16:04;;;;;;;2.20;1.40;;;;;;;13.28;33.77;101436.69;5069399;28;20055;-70
2022/04/17 08:18:33;;;;;;;1.75;1.45;;;;;;;13.60;34.51;101437.47;5066132;28;20057;-69
2022/04/17 08:21:02;;;;;;;1.90;1.63;;;;;;;13.55;33.15;101450.13;5061258;28;20037;-70
2022/04/17 08:23:31;;;;;;;2.15;1.80;;;;;;;13.63;33.02;101432.25;5064495;28;20395;-69
2022/04/17 08:26:03;;;;;;;1.40;1.30;;;;;;;13.69;33.55;101420.13;5063323;28;20047;-69
2022/04/17 08:28:32;;;;;;;4.60;1.30;;;;;;;13.96;33.46;101434.59;5069206;28;20044;-70
2022/04/17 08:31:00;;;;;;;1.83;1.45;;;;;;;14.00;32.93;101418.34;5065951;28;20056;-70
2022/04/17 08:33:28;;;;;;;2.88;1.52;;;;;;;14.10;33.90;101432.06;5065031;28;20491;-70
2022/04/17 08:35:59;;;;;;;1.40;1.30;;;;;;;13.79;31.83;101435.75;5068037;28;20123;-69
2022/04/17 08:38:27;;;;;;;1.95;1.65;;;;;;;13.82;32.24;101429.72;5063080;28;20044;-69
2022/04/17 08:40:58;;;;;;;1.35;1.30;;;;;;;13.90;32.73;101424.72;5064238;28;20546;-69
2022/04/17 08:43:27;;;;;;;2.55;1.65;;;;;;;13.96;32.29;101435.44;5069255;28;20037;-69
2022/04/17 08:45:55;;;;;;;2.20;2.00;;;;;;;13.74;32.43;101430.25;5069112;28;20048;-70
2022/04/17 08:48:23;;;;;;;2.03;1.55;;;;;;;13.81;32.17;101418.97;5066530;28;20368;-69
2022/04/17 08:50:54;;;;;;;1.55;1.45;;;;;;;14.03;32.25;101428.78;5072001;28;20378;-69
2022/04/17 08:53:22;;;;;;;1.27;1.20;;;;;;;14.02;30.82;101413.41;5072349;28;20091;-69
2022/04/17 08:55:51;;;;;;;1.83;1.63;;;;;;;14.13;31.79;101422.41;5072125;28;20044;-71
2022/04/17 08:58:20;;;;;;;3.05;1.75;;;;;;;14.19;32.10;101411.09;5072846;28;20045;-69
2022/04/17 09:00:48;;;;;;;1.45;1.35;;;;;;;14.23;32.06;101416.84;5067104;28;20047;-69
2022/04/17 09:03:16;;;;;;;6.13;1.75;;;;;;;14.10;31.64;101408.13;5072549;28;20071;-69
2022/04/17 09:05:45;;;;;;;3.38;1.40;;;;;;;14.08;31.89;101406.75;5079833;28;20045;-69
2022/04/17 09:08:18;;;;;;;4.13;1.42;;;;;;;14.28;32.02;101402.22;5078366;28;20056;-69
2022/04/17 09:10:57;;;;;;;2.97;1.63;;;;;;;14.20;31.89;101398.97;5078762;28;20044;-49
2022/04/17 09:13:27;;;;;;;1.58;1.17;;;;;;;14.47;32.30;101394.94;5064075;28;20291;-49
2022/04/17 09:15:56;;;;;;;2.40;1.77;;;;;;;14.63;31.79;101400.34;5067320;28;20044;-69
2022/04/17 09:18:28;;;;;;;2.75;1.42;;;;;;;14.73;32.07;101386.50;5069739;28;20044;-69
2022/04/17 09:20:56;;;;;;;6.47;1.48;;;;;;;14.66;31.21;101391.47;5068457;28;20052;-69
2022/04/17 09:23:35;;;;;;;1.42;1.33;;;;;;;14.85;31.11;101388.03;5068752;28;20068;-69
2022/04/17 09:26:07;;;;;;;2.25;1.38;;;;;;;14.87;31.15;101374.81;5067074;28;20391;-69
2022/04/17 09:28:37;;;;;;;2.05;1.83;;;;;;;14.90;30.84;101371.47;5069471;28;20048;-69
2022/04/17 09:31:12;;;;;;;2.30;1.70;;;;;;;14.87;30.69;101377.56;5067652;28;20053;-69
2022/04/17 09:33:42;;;;;;;1.83;1.60;;;;;;;14.67;31.15;101371.13;5072352;28;20045;-69
2022/04/17 09:36:12;;;;;;;1.48;1.38;;;;;;;14.92;31.99;101377.53;5073155;28;20053;-70
2022/04/17 09:38:42;;;;;;;2.20;1.65;;;;;;;14.67;31.21;101376.63;5064541;28;20053;-69
2022/04/17 09:41:14;;;;;;;3.47;1.65;;;;;;;14.86;31.63;101367.66;5073370;28;20048;-69
2022/04/17 09:43:43;;;;;;;2.55;1.90;;;;;;;15.19;31.54;101376.16;5067798;28;20409;-69
2022/04/17 09:46:13;;;;;;;4.95;1.90;;;;;;;15.09;31.85;101363.31;5068398;28;20044;-69
2022/04/17 09:48:43;;;;;;;2.60;1.88;;;;;;;15.24;32.03;101356.81;5073566;28;20084;-60
2022/04/17 09:51:23;;;;;;;3.45;2.70;;;;;;;15.49;31.87;101363.13;5070255;28;20056;-61
2022/04/17 09:54:00;;;;;;;4.50;2.15;;;;;;;15.22;34.01;101353.53;5073856;28;20048;-60
2022/04/17 09:56:40;;;;;;;3.17;2.05;;;;;;;15.26;31.80;101351.00;5072712;28;20048;-60
2022/04/17 09:59:22;;;;;;;3.22;1.35;;;;;;;15.72;31.73;101347.69;5073787;28;20048;-61
2022/04/17 10:01:52;;;;;;;1.70;1.60;;;;;;;15.87;30.51;101340.31;5063292;28;20395;-61
2022/04/17 10:04:24;;;;;;;2.00;1.90;;;;;;;16.10;30.23;101338.63;5074877;28;20052;-61
2022/04/17 10:06:54;;;;;;;4.22;2.53;;;;;;;16.48;30.46;101337.75;5092133;28;20044;-60
2022/04/17 10:09:22;;;;;;;1.98;1.75;;;;;;;16.35;30.18;101338.53;5094232;28;20055;-60
2022/04/17 10:11:51;;;;;;;2.10;1.92;;;;;;;16.31;29.15;101338.31;5094294;28;20070;-61
2022/04/17 10:14:19;;;;;;;1.83;1.70;;;;;;;16.21;29.37;101331.00;5094033;28;20048;-60
2022/04/17 10:16:49;;;;;;;2.05;1.65;;;;;;;16.10;28.68;101322.06;5093882;28;20556;-60
2022/04/17 10:19:24;;;;;;;3.47;1.65;;;;;;;16.47;28.85;101324.25;5093858;28;20056;-60
2022/04/17 10:21:53;;;;;;;3.33;2.80;;;;;;;16.82;28.37;101308.19;5093995;28;20063;-61
2022/04/17 10:24:21;;;;;;;4.10;2.50;;;;;;;17.36;27.71;101318.78;5093877;28;20059;-61
2022/04/17 10:26:51;;;;;;;2.40;2.15;;;;;;;16.79;28.98;101315.13;5093876;28;20055;-61
2022/04/17 10:29:32;;;;;;;6.65;4.47;;;;;;;16.43;29.96;101307.44;5093649;28;20059;-61
2022/04/17 10:32:32;;;;;;;4.43;2.38;;;;;;;16.41;29.08;101298.66;5093804;28;20078;-61
2022/04/17 10:35:38;;;;;;;5.30;1.90;;;;;;;16.44;30.56;101297.22;5093259;28;20043;-61
2022/04/17 10:38:25;;;;;;;;;;;;;;;17.14;29.52;101292.66;5094107;28;20063;-61
2022/04/17 10:41:03;;;;;;;4.32;3.55;;;;;;;17.22;28.83;101288.34;5093616;28;20306;-61
2022/04/17 10:43:43;;;;;;;17.08;7.75;;;;;;;17.96;27.19;101293.94;5093535;28;20051;-61
2022/04/17 10:46:20;;;;;;;5.95;2.65;;;;;;;18.15;28.48;101279.97;5093266;28;20056;-61
2022/04/17 10:48:49;;;;;;;1.80;1.70;;;;;;;17.41;28.00;101281.88;5093585;28;20063;-61
2022/04/17 10:51:31;;;;;;;4.05;2.72;;;;;;;17.56;28.23;101283.50;5093418;28;20051;-61
2022/04/17 10:54:04;;;;;;;3.45;2.45;;;;;;;17.44;28.78;101284.84;5093143;28;20044;-61
2022/04/17 10:56:33;;;;;;;3.08;1.90;;;;;;;17.80;28.17;101280.44;5092660;28;20047;-61
2022/04/17 10:59:06;;;;;;;5.32;1.92;;;;;;;18.24;26.86;101274.47;5093058;28;20048;-61
2022/04/17 11:01:45;;;;;;;3.70;2.72;;;;;;;17.70;28.81;101264.91;5092785;28;20398;-61
2022/04/17 11:04:24;;;;;;;2.25;1.83;;;;;;;17.44;27.65;101267.41;5093090;28;20411;-61
2022/04/17 11:07:12;;;;;;;4.03;2.05;;;;;;;17.62;29.19;101257.34;5092599;28;20047;-61
2022/04/17 11:09:42;;;;;;;4.25;3.05;;;;;;;16.84;28.48;101255.34;5092444;28;20052;-61
2022/04/17 11:12:10;;;;;;;2.28;2.08;;;;;;;17.33;28.30;101253.00;5092641;28;20047;-61
2022/04/17 11:14:41;;;;;;;2.03;1.83;;;;;;;17.38;27.82;101246.53;5092584;28;20048;-60
2022/04/17 11:17:11;;;;;;;3.20;2.80;;;;;;;17.56;30.54;101228.16;5092064;28;20055;-61
2022/04/17 11:19:40;;;;;;;5.55;2.83;;;;;;;18.26;29.51;101223.16;5092340;28;20044;-60
2022/04/17 11:22:09;;;;;;;6.20;5.05;;;;;;;18.17;28.41;101219.50;5092299;28;20044;-61
2022/04/17 11:25:01;;;;;;;9.73;7.63;;;;;;;18.15;28.35;101221.78;5092359;28;20048;-61
2022/04/17 11:27:32;;;;;;;4.57;4.13;;;;;;;18.38;27.25;101222.56;5092117;28;20067;-60
2022/04/17 11:30:00;;;;;;;2.78;1.73;;;;;;;18.02;26.98;101222.66;5092598;28;20051;-61
2022/04/17 11:32:32;;;;;;;4.25;1.75;;;;;;;18.00;27.99;101215.47;5092364;28;20048;-61
2022/04/17 11:35:04;;;;;;;2.70;2.10;;;;;;;18.08;27.34;101218.66;5092175;28;20494;-61
2022/04/17 11:37:33;;;;;;;2.33;1.85;;;;;;;18.62;27.25;101209.50;5091729;28;20410;-61
2022/04/17 11:40:12;;;;;;;3.97;2.72;;;;;;;19.28;26.98;101196.78;5091600;28;20040;-61
2022/04/17 11:42:46;;;;;;;2.70;2.30;;;;;;;18.73;27.28;101199.72;5092226;28;20877;-60
2022/04/17 11:45:28;;;;;;;5.43;2.85;;;;;;;18.57;27.15;101196.56;5092267;28;20051;-61
2022/04/17 11:48:02;;;;;;;2.65;2.03;;;;;;;18.44;25.79;101192.78;5091986;28;20052;-61
2022/04/17 11:50:30;;;;;;;3.30;2.88;;;;;;;19.29;27.27;101185.38;5091952;28;20047;-61
2022/04/17 11:53:03;;;;;;;4.28;3.08;;;;;;;19.47;25.83;101188.16;5092027;28;20047;-61
2022/04/17 11:55:36;;;;;;;31.23;21.45;;;;;;;18.63;26.44;101184.19;5091783;28;20040;-61